createdAt,value
2022-12-05T00:00:03.164Z,1006.76
2022-12-05T00:01:03.169Z,1006.74
2022-12-05T00:02:03.011Z,1006.74
2022-12-05T00:03:03.267Z,1006.74
2022-12-05T00:04:03.487Z,1006.76
2022-12-05T00:05:02.807Z,1006.78
2022-12-05T00:06:03.395Z,1006.77
2022-12-05T00:07:02.126Z,1006.75
2022-12-05T00:08:02.389Z,1006.73
2022-12-05T00:09:02.332Z,1006.75
2022-12-05T00:10:02.320Z,1006.77
2022-12-05T00:11:02.031Z,1006.78
2022-12-05T00:12:02.594Z,1006.77
2022-12-05T00:13:02.303Z,1006.80
2022-12-05T00:14:02.412Z,1006.81
2022-12-05T00:15:02.099Z,1006.83
2022-12-05T00:16:02.631Z,1006.87
2022-12-05T00:17:02.680Z,1006.86
2022-12-05T00:18:02.254Z,1006.88
2022-12-05T00:19:02.502Z,1006.87
2022-12-05T00:20:02.785Z,1006.85
2022-12-05T00:21:02.625Z,1006.86
2022-12-05T00:22:02.471Z,1006.84
2022-12-05T00:23:02.547Z,1006.84
2022-12-05T00:24:02.587Z,1006.87
2022-12-05T00:25:02.536Z,1006.85
2022-12-05T00:26:02.851Z,1006.85
2022-12-05T00:27:03.051Z,1006.84
2022-12-05T00:28:03.020Z,1006.84
2022-12-05T00:29:03.232Z,1006.89
2022-12-05T00:30:02.724Z,1006.87
2022-12-05T00:31:03.303Z,1006.89
2022-12-05T00:32:02.053Z,1006.86
2022-12-05T00:33:02.255Z,1006.91
2022-12-05T00:34:02.072Z,1006.93
2022-12-05T00:35:02.508Z,1006.87
2022-12-05T00:36:02.404Z,1006.89
2022-12-05T00:37:02.599Z,1006.88
2022-12-05T00:38:02.731Z,1006.88
2022-12-05T00:39:02.605Z,1006.87
2022-12-05T00:40:02.366Z,1006.87
2022-12-05T00:41:02.398Z,1006.87
2022-12-05T00:42:02.369Z,1006.88
2022-12-05T00:43:02.546Z,1006.85
2022-12-05T00:44:02.419Z,1006.87
2022-12-05T00:45:02.303Z,1006.85
2022-12-05T00:46:02.828Z,1006.82
2022-12-05T00:47:02.582Z,1006.87
2022-12-05T00:48:03.027Z,1006.86
2022-12-05T00:49:02.667Z,1006.83
2022-12-05T00:50:02.879Z,1006.82
2022-12-05T00:51:02.608Z,1006.83
2022-12-05T00:52:02.106Z,1006.80
2022-12-05T00:53:02.084Z,1006.81
2022-12-05T00:54:02.105Z,1006.80
2022-12-05T00:55:02.254Z,1006.80
2022-12-05T00:56:02.210Z,1006.78
2022-12-05T00:57:02.631Z,1006.82
2022-12-05T00:58:03.193Z,1006.82
2022-12-05T00:59:02.705Z,1006.81
2022-12-05T01:00:02.733Z,1006.80
2022-12-05T01:01:02.877Z,1006.80
2022-12-05T01:02:02.295Z,1006.83
2022-12-05T01:03:02.141Z,1006.85
2022-12-05T01:04:02.136Z,1006.83
2022-12-05T01:05:02.205Z,1006.81
2022-12-05T01:06:02.100Z,1006.87
2022-12-05T01:07:01.774Z,1006.88
2022-12-05T01:08:02.098Z,1006.87
2022-12-05T01:09:02.349Z,1006.88
2022-12-05T01:10:02.044Z,1006.92
2022-12-05T01:11:02.213Z,1006.95
2022-12-05T01:12:02.049Z,1006.94
2022-12-05T01:13:02.395Z,1007.00
2022-12-05T01:14:02.019Z,1007.00
2022-12-05T01:15:01.972Z,1007.00
2022-12-05T01:16:02.394Z,1007.03
2022-12-05T01:17:02.158Z,1007.02
2022-12-05T01:18:02.356Z,1007.04
2022-12-05T01:19:02.375Z,1007.05
2022-12-05T01:20:02.209Z,1007.03
2022-12-05T01:21:02.076Z,1007.07
2022-12-05T01:22:01.784Z,1007.04
2022-12-05T01:23:01.962Z,1007.05
2022-12-05T01:24:02.041Z,1007.06
2022-12-05T01:25:01.459Z,1007.12
2022-12-05T01:26:01.636Z,1007.10
2022-12-05T01:27:02.443Z,1007.15
2022-12-05T01:28:02.135Z,1007.15
2022-12-05T01:29:02.577Z,1007.20
2022-12-05T01:30:02.187Z,1007.17
2022-12-05T01:31:02.334Z,1007.18
2022-12-05T01:32:02.109Z,1007.17
2022-12-05T01:33:02.466Z,1007.20
2022-12-05T01:34:02.132Z,1007.19
2022-12-05T01:35:01.932Z,1007.22
2022-12-05T01:36:02.026Z,1007.17
2022-12-05T01:37:02.581Z,1007.17
2022-12-05T01:38:02.703Z,1007.20
2022-12-05T01:39:02.579Z,1007.18
2022-12-05T01:40:02.348Z,1007.17
2022-12-05T01:41:02.277Z,1007.20
2022-12-05T01:42:01.564Z,1007.18
2022-12-05T01:43:01.869Z,1007.18
2022-12-05T01:44:01.678Z,1007.18
2022-12-05T01:45:01.557Z,1007.23
2022-12-05T01:46:01.921Z,1007.22
2022-12-05T01:47:02.496Z,1007.25
2022-12-05T01:48:02.679Z,1007.26
2022-12-05T01:49:02.187Z,1007.24
2022-12-05T01:50:02.198Z,1007.26
2022-12-05T01:51:02.736Z,1007.27
2022-12-05T01:52:01.715Z,1007.30
2022-12-05T01:53:01.483Z,1007.32
2022-12-05T01:54:01.560Z,1007.31
2022-12-05T01:55:01.493Z,1007.35
2022-12-05T01:56:01.351Z,1007.32
2022-12-05T01:57:01.780Z,1007.34
2022-12-05T01:58:02.158Z,1007.37
2022-12-05T01:59:01.740Z,1007.33
2022-12-05T02:00:01.654Z,1007.32
2022-12-05T02:01:01.568Z,1007.36
2022-12-05T02:02:02.907Z,1007.36
2022-12-05T02:03:02.922Z,1007.36
2022-12-05T02:04:03.250Z,1007.30
2022-12-05T02:05:02.754Z,1007.30
2022-12-05T02:06:02.768Z,1007.34
2022-12-05T02:07:03.300Z,1007.34
2022-12-05T02:08:03.405Z,1007.33
2022-12-05T02:09:03.610Z,1007.33
2022-12-05T02:10:03.144Z,1007.35
2022-12-05T02:11:03.164Z,1007.36
2022-12-05T02:12:02.534Z,1007.35
2022-12-05T02:13:02.856Z,1007.36
2022-12-05T02:14:02.435Z,1007.36
2022-12-05T02:15:02.374Z,1007.37
2022-12-05T02:16:02.999Z,1007.37
2022-12-05T02:17:03.538Z,1007.36
2022-12-05T02:18:03.483Z,1007.35
2022-12-05T02:19:03.538Z,1007.36
2022-12-05T02:20:03.415Z,1007.38
2022-12-05T02:21:03.089Z,1007.36
2022-12-05T02:22:03.604Z,1007.39
2022-12-05T02:23:03.810Z,1007.39
2022-12-05T02:24:03.868Z,1007.39
2022-12-05T02:25:03.483Z,1007.40
2022-12-05T02:26:03.651Z,1007.44
2022-12-05T02:27:02.994Z,1007.40
2022-12-05T02:28:03.457Z,1007.41
2022-12-05T02:29:03.119Z,1007.38
2022-12-05T02:30:03.054Z,1007.43
2022-12-05T02:31:03.129Z,1007.41
2022-12-05T02:32:02.842Z,1007.38
2022-12-05T02:33:02.621Z,1007.37
2022-12-05T02:34:02.790Z,1007.37
2022-12-05T02:35:02.793Z,1007.37
2022-12-05T02:36:02.724Z,1007.32
2022-12-05T02:37:03.381Z,1007.35
2022-12-05T02:38:03.061Z,1007.37
2022-12-05T02:40:03.076Z,1007.40
2022-12-05T02:41:03.144Z,1007.39
2022-12-05T02:42:02.760Z,1007.38
2022-12-05T02:43:02.207Z,1007.39
2022-12-05T02:44:02.733Z,1007.36
2022-12-05T02:45:02.663Z,1007.36
2022-12-05T02:46:02.888Z,1007.33
2022-12-05T02:47:03.200Z,1007.32
2022-12-05T02:48:03.031Z,1007.35
2022-12-05T02:49:02.991Z,1007.33
2022-12-05T02:50:02.970Z,1007.36
2022-12-05T02:51:02.767Z,1007.37
2022-12-05T02:52:03.253Z,1007.36
2022-12-05T02:53:02.997Z,1007.40
2022-12-05T02:54:03.375Z,1007.40
2022-12-05T02:55:03.372Z,1007.42
2022-12-05T02:56:03.089Z,1007.41
2022-12-05T02:57:03.716Z,1007.37
2022-12-05T02:58:03.357Z,1007.38
2022-12-05T02:59:03.262Z,1007.38
2022-12-05T03:00:03.200Z,1007.37
2022-12-05T03:01:03.462Z,1007.40
2022-12-05T03:02:03.179Z,1007.41
2022-12-05T03:03:02.915Z,1007.40
2022-12-05T03:04:02.854Z,1007.39
2022-12-05T03:05:02.824Z,1007.40
2022-12-05T03:06:02.754Z,1007.39
2022-12-05T03:07:03.213Z,1007.38
2022-12-05T03:08:03.437Z,1007.37
2022-12-05T03:09:02.954Z,1007.39
2022-12-05T03:10:02.872Z,1007.37
2022-12-05T03:11:03.324Z,1007.36
2022-12-05T03:12:02.271Z,1007.38
2022-12-05T03:13:02.884Z,1007.36
2022-12-05T03:14:02.796Z,1007.36
2022-12-05T03:15:02.764Z,1007.37
2022-12-05T03:16:02.675Z,1007.32
2022-12-05T03:17:02.654Z,1007.38
2022-12-05T03:18:03.057Z,1007.32
2022-12-05T03:19:02.957Z,1007.40
2022-12-05T03:20:02.576Z,1007.39
2022-12-05T03:21:03.177Z,1007.41
2022-12-05T03:22:02.816Z,1007.40
2022-12-05T03:23:03.379Z,1007.45
2022-12-05T03:24:03.048Z,1007.42
2022-12-05T03:25:03.033Z,1007.44
2022-12-05T03:26:02.949Z,1007.43
2022-12-05T03:27:02.372Z,1007.42
2022-12-05T03:28:02.259Z,1007.47
2022-12-05T03:29:02.143Z,1007.43
2022-12-05T03:30:02.260Z,1007.47
2022-12-05T03:31:02.163Z,1007.46
2022-12-05T03:32:02.295Z,1007.48
2022-12-05T03:33:02.209Z,1007.46
2022-12-05T03:34:02.067Z,1007.43
2022-12-05T03:35:02.298Z,1007.46
2022-12-05T03:36:02.510Z,1007.53
2022-12-05T03:37:02.608Z,1007.53
2022-12-05T03:38:02.610Z,1007.50
2022-12-05T03:39:02.510Z,1007.56
2022-12-05T03:40:02.642Z,1007.54
2022-12-05T03:41:02.232Z,1007.54
2022-12-05T03:42:02.084Z,1007.56
2022-12-05T03:43:02.130Z,1007.55
2022-12-05T03:44:02.298Z,1007.56
2022-12-05T03:45:02.613Z,1007.56
2022-12-05T03:46:02.352Z,1007.54
2022-12-05T03:47:02.760Z,1007.55
2022-12-05T03:48:02.675Z,1007.59
2022-12-05T03:49:02.582Z,1007.57
2022-12-05T03:50:02.578Z,1007.55
2022-12-05T03:51:02.502Z,1007.59
2022-12-05T03:52:02.455Z,1007.55
2022-12-05T03:54:02.345Z,1007.58
2022-12-05T03:55:02.852Z,1007.56
2022-12-05T03:56:02.849Z,1007.58
2022-12-05T03:57:02.245Z,1007.60
2022-12-05T03:58:01.859Z,1007.66
2022-12-05T03:59:01.760Z,1007.60
2022-12-05T04:00:02.113Z,1007.65
2022-12-05T04:01:02.296Z,1007.67
2022-12-05T04:02:03.011Z,1007.66
2022-12-05T04:03:03.071Z,1007.68
2022-12-05T04:04:03.284Z,1007.64
2022-12-05T04:05:03.320Z,1007.66
2022-12-05T04:06:03.245Z,1007.65
2022-12-05T04:07:02.179Z,1007.65
2022-12-05T04:08:02.237Z,1007.66
2022-12-05T04:09:02.719Z,1007.69
2022-12-05T04:10:02.137Z,1007.68
2022-12-05T04:11:02.176Z,1007.69
2022-12-05T04:12:02.490Z,1007.67
2022-12-05T04:13:02.380Z,1007.70
2022-12-05T04:14:02.955Z,1007.73
2022-12-05T04:15:02.589Z,1007.71
2022-12-05T04:16:02.499Z,1007.72
2022-12-05T04:17:03.258Z,1007.70
2022-12-05T04:18:02.939Z,1007.74
2022-12-05T04:19:03.073Z,1007.73
2022-12-05T04:20:02.623Z,1007.74
2022-12-05T04:21:02.819Z,1007.79
2022-12-05T04:22:02.366Z,1007.74
2022-12-05T04:23:02.463Z,1007.73
2022-12-05T04:24:02.349Z,1007.71
2022-12-05T04:25:02.229Z,1007.74
2022-12-05T04:26:02.812Z,1007.72
2022-12-05T04:27:02.900Z,1007.75
2022-12-05T04:28:02.571Z,1007.77
2022-12-05T04:29:02.459Z,1007.76
2022-12-05T04:30:02.358Z,1007.75
2022-12-05T04:31:02.414Z,1007.77
2022-12-05T04:32:02.097Z,1007.73
2022-12-05T04:33:02.023Z,1007.77
2022-12-05T04:34:02.277Z,1007.77
2022-12-05T04:35:02.207Z,1007.78
2022-12-05T04:36:02.239Z,1007.77
2022-12-05T04:37:02.159Z,1007.77
2022-12-05T04:38:02.441Z,1007.82
2022-12-05T04:39:02.004Z,1007.85
2022-12-05T04:40:02.269Z,1007.84
2022-12-05T04:41:02.161Z,1007.85
2022-12-05T04:42:02.639Z,1007.88
2022-12-05T04:43:02.529Z,1007.89
2022-12-05T04:44:03.111Z,1007.87
2022-12-05T04:45:02.748Z,1007.93
2022-12-05T04:46:02.692Z,1007.91
2022-12-05T04:47:02.235Z,1007.91
2022-12-05T04:48:02.156Z,1007.94
2022-12-05T04:49:02.020Z,1007.93
2022-12-05T04:50:01.909Z,1007.91
2022-12-05T04:51:02.172Z,1007.93
2022-12-05T04:52:02.177Z,1007.91
2022-12-05T04:53:02.104Z,1007.94
2022-12-05T04:54:01.965Z,1007.93
2022-12-05T04:55:01.968Z,1007.92
2022-12-05T04:56:01.880Z,1007.89
2022-12-05T04:57:02.424Z,1007.89
2022-12-05T04:58:02.016Z,1007.88
2022-12-05T04:59:02.612Z,1007.89
2022-12-05T05:00:02.255Z,1007.87
2022-12-05T05:01:02.359Z,1007.88
2022-12-05T05:02:02.847Z,1007.88
2022-12-05T05:03:02.851Z,1007.89
2022-12-05T05:04:02.657Z,1007.85
2022-12-05T05:05:03.263Z,1007.87
2022-12-05T05:06:02.896Z,1007.85
2022-12-05T05:07:02.522Z,1007.89
2022-12-05T05:08:02.496Z,1007.85
2022-12-05T05:09:02.285Z,1007.85
2022-12-05T05:10:02.722Z,1007.87
2022-12-05T05:11:02.601Z,1007.90
2022-12-05T05:12:03.004Z,1007.91
2022-12-05T05:13:02.845Z,1007.93
2022-12-05T05:14:02.828Z,1007.93
2022-12-05T05:15:02.733Z,1007.93
2022-12-05T05:16:03.297Z,1007.93
2022-12-05T05:17:02.727Z,1007.92
2022-12-05T05:18:02.335Z,1007.94
2022-12-05T05:19:02.916Z,1007.93
2022-12-05T05:20:02.745Z,1007.91
2022-12-05T05:21:02.594Z,1007.92
2022-12-05T05:22:02.889Z,1007.93
2022-12-05T05:23:02.927Z,1007.93
2022-12-05T05:24:02.818Z,1007.96
2022-12-05T05:25:02.659Z,1007.95
2022-12-05T05:26:02.541Z,1007.96
2022-12-05T05:27:03.113Z,1007.96
2022-12-05T05:28:03.007Z,1007.99
2022-12-05T05:29:02.889Z,1007.92
2022-12-05T05:30:02.790Z,1008.01
2022-12-05T05:31:03.258Z,1007.98
2022-12-05T05:32:02.796Z,1008.02
2022-12-05T05:33:02.693Z,1008.02
2022-12-05T05:34:09.170Z,1008.01
2022-12-05T05:35:02.790Z,1008.02
2022-12-05T05:36:02.609Z,1008.02
2022-12-05T05:37:02.300Z,1008.04
2022-12-05T05:38:02.209Z,1008.04
2022-12-05T05:39:02.123Z,1008.00
2022-12-05T05:40:06.254Z,1008.03
2022-12-05T05:41:02.312Z,1008.00
2022-12-05T05:42:02.905Z,1008.03
2022-12-05T05:43:02.839Z,1008.06
2022-12-05T05:44:02.716Z,1008.04
2022-12-05T05:45:02.460Z,1007.99
2022-12-05T05:46:02.635Z,1008.01
2022-12-05T05:47:02.996Z,1007.99
2022-12-05T05:48:02.902Z,1008.00
2022-12-05T05:49:02.925Z,1008.00
2022-12-05T05:50:02.855Z,1008.02
2022-12-05T05:51:02.762Z,1008.02
2022-12-05T05:52:02.387Z,1008.03
2022-12-05T05:53:02.255Z,1008.05
2022-12-05T05:54:02.160Z,1008.06
2022-12-05T05:55:02.077Z,1008.07
2022-12-05T05:56:02.472Z,1008.07
2022-12-05T05:57:02.792Z,1008.11
2022-12-05T05:58:02.716Z,1008.08
2022-12-05T05:59:02.634Z,1008.12
2022-12-05T06:00:02.799Z,1008.15
2022-12-05T06:01:02.372Z,1008.12
2022-12-05T06:02:02.504Z,1008.13
2022-12-05T06:03:03.073Z,1008.17
2022-12-05T06:04:02.553Z,1008.14
2022-12-05T06:05:02.823Z,1008.19
2022-12-05T06:06:02.546Z,1008.18
2022-12-05T06:07:03.424Z,1008.19
2022-12-05T06:08:03.377Z,1008.20
2022-12-05T06:09:03.216Z,1008.23
2022-12-05T06:10:03.351Z,1008.23
2022-12-05T06:11:03.171Z,1008.23
2022-12-05T06:12:03.026Z,1008.22
2022-12-05T06:13:02.796Z,1008.19
2022-12-05T06:14:02.622Z,1008.24
2022-12-05T06:15:02.455Z,1008.20
2022-12-05T06:16:02.741Z,1008.18
2022-12-05T06:17:02.922Z,1008.18
2022-12-05T06:18:02.815Z,1008.17
2022-12-05T06:19:03.357Z,1008.16
2022-12-05T06:20:02.893Z,1008.13
2022-12-05T06:21:03.198Z,1008.14
2022-12-05T06:22:02.028Z,1008.13
2022-12-05T06:23:02.549Z,1008.17
2022-12-05T06:24:02.193Z,1008.16
2022-12-05T06:25:02.520Z,1008.19
2022-12-05T06:26:02.416Z,1008.17
2022-12-05T06:27:02.908Z,1008.18
2022-12-05T06:28:02.400Z,1008.18
2022-12-05T06:29:02.431Z,1008.19
2022-12-05T06:30:02.700Z,1008.21
2022-12-05T06:31:02.992Z,1008.20
2022-12-05T06:32:03.497Z,1008.20
2022-12-05T06:33:03.082Z,1008.20
2022-12-05T06:34:02.825Z,1008.21
2022-12-05T06:35:03.280Z,1008.22
2022-12-05T06:36:03.179Z,1008.22
2022-12-05T06:37:02.648Z,1008.25
2022-12-05T06:38:02.141Z,1008.25
2022-12-05T06:39:02.035Z,1008.25
2022-12-05T06:40:02.584Z,1008.25
2022-12-05T06:41:02.264Z,1008.24
2022-12-05T06:42:02.287Z,1008.24
2022-12-05T06:43:02.728Z,1008.27
2022-12-05T06:44:02.897Z,1008.27
2022-12-05T06:45:02.559Z,1008.25
2022-12-05T06:46:02.412Z,1008.28
2022-12-05T06:47:02.354Z,1008.26
2022-12-05T06:48:02.952Z,1008.28
2022-12-05T06:49:02.618Z,1008.30
2022-12-05T06:50:02.550Z,1008.35
2022-12-05T06:51:02.756Z,1008.34
2022-12-05T06:52:02.606Z,1008.34
2022-12-05T06:53:03.107Z,1008.35
2022-12-05T06:54:02.897Z,1008.40
2022-12-05T06:55:02.960Z,1008.41
2022-12-05T06:56:02.714Z,1008.42
2022-12-05T06:57:02.291Z,1008.39
2022-12-05T06:58:02.842Z,1008.46
2022-12-05T06:59:02.291Z,1008.45
2022-12-05T07:00:02.239Z,1008.46
2022-12-05T07:01:02.567Z,1008.45
2022-12-05T07:02:02.660Z,1008.48
2022-12-05T07:03:03.141Z,1008.51
2022-12-05T07:04:03.058Z,1008.51
2022-12-05T07:05:02.484Z,1008.51
2022-12-05T07:06:02.601Z,1008.52
2022-12-05T07:07:02.742Z,1008.53
2022-12-05T07:08:02.778Z,1008.57
2022-12-05T07:09:02.848Z,1008.57
2022-12-05T07:10:02.643Z,1008.58
2022-12-05T07:11:02.623Z,1008.55
2022-12-05T07:12:02.299Z,1008.53
2022-12-05T07:13:02.228Z,1008.58
2022-12-05T07:14:10.246Z,1008.55
2022-12-05T07:15:02.100Z,1008.55
2022-12-05T07:16:02.709Z,1008.59
2022-12-05T07:17:02.397Z,1008.59
2022-12-05T07:18:02.279Z,1008.63
2022-12-05T07:19:02.252Z,1008.62
2022-12-05T07:20:02.845Z,1008.65
2022-12-05T07:21:15.439Z,1008.66
2022-12-05T07:22:02.862Z,1008.69
2022-12-05T07:23:02.853Z,1008.73
2022-12-05T07:24:02.812Z,1008.75
2022-12-05T07:25:02.797Z,1008.77
2022-12-05T07:26:03.265Z,1008.74
2022-12-05T07:27:02.192Z,1008.78
2022-12-05T07:28:02.571Z,1008.81
2022-12-05T07:29:02.335Z,1008.78
2022-12-05T07:30:02.195Z,1008.75
2022-12-05T07:31:01.896Z,1008.75
2022-12-05T07:32:02.896Z,1008.76
2022-12-05T07:33:02.527Z,1008.76
2022-12-05T07:34:02.793Z,1008.76
2022-12-05T07:35:02.747Z,1008.78
2022-12-05T07:36:02.647Z,1008.79
2022-12-05T07:37:02.636Z,1008.84
2022-12-05T07:38:02.860Z,1008.83
2022-12-05T07:39:02.875Z,1008.83
2022-12-05T07:40:02.908Z,1008.87
2022-12-05T07:41:02.729Z,1008.86
2022-12-05T07:42:02.320Z,1008.87
2022-12-05T07:43:02.197Z,1008.88
2022-12-05T07:44:02.134Z,1008.86
2022-12-05T07:45:02.095Z,1008.86
2022-12-05T07:46:02.051Z,1008.85
2022-12-05T07:47:02.739Z,1008.87
2022-12-05T07:48:02.703Z,1008.91
2022-12-05T07:49:02.718Z,1008.93
2022-12-05T07:50:02.662Z,1008.94
2022-12-05T07:51:02.619Z,1008.92
2022-12-05T07:52:02.317Z,1008.90
2022-12-05T07:53:02.265Z,1008.93
2022-12-05T07:54:02.274Z,1008.98
2022-12-05T07:55:02.288Z,1009.01
2022-12-05T07:56:02.332Z,1009.02
2022-12-05T07:57:02.343Z,1009.02
2022-12-05T07:58:02.393Z,1009.03
2022-12-05T07:59:02.418Z,1009.03
2022-12-05T08:00:02.312Z,1009.03
2022-12-05T08:01:02.450Z,1009.04
2022-12-05T08:02:02.904Z,1009.05
2022-12-05T08:03:02.860Z,1009.04
2022-12-05T08:04:02.881Z,1009.01
2022-12-05T08:05:02.913Z,1009.00
2022-12-05T08:06:02.836Z,1008.98
2022-12-05T08:07:03.259Z,1008.98
2022-12-05T08:08:03.199Z,1008.93
2022-12-05T08:09:03.150Z,1008.95
2022-12-05T08:10:03.072Z,1008.92
2022-12-05T08:11:02.975Z,1008.97
2022-12-05T08:12:02.652Z,1008.92
2022-12-05T08:13:02.731Z,1008.91
2022-12-05T08:14:02.418Z,1008.93
2022-12-05T08:15:02.388Z,1008.97
2022-12-05T08:16:02.293Z,1009.01
2022-12-05T08:17:02.969Z,1009.02
2022-12-05T08:18:02.952Z,1009.06
2022-12-05T08:19:02.901Z,1009.07
2022-12-05T08:20:02.835Z,1009.04
2022-12-05T08:21:02.766Z,1009.11
2022-12-05T08:22:02.452Z,1009.09
2022-12-05T08:23:02.562Z,1009.16
2022-12-05T08:24:02.358Z,1009.14
2022-12-05T08:25:02.405Z,1009.14
2022-12-05T08:26:02.335Z,1009.11
2022-12-05T08:27:03.037Z,1009.12
2022-12-05T08:28:02.971Z,1009.11
2022-12-05T08:29:03.119Z,1009.12
2022-12-05T08:30:03.127Z,1009.13
2022-12-05T08:31:02.786Z,1009.14
2022-12-05T08:32:02.425Z,1009.13
2022-12-05T08:33:02.380Z,1009.16
2022-12-05T08:34:01.948Z,1009.14
2022-12-05T08:35:02.013Z,1009.12
2022-12-05T08:36:02.318Z,1009.17
2022-12-05T08:37:03.120Z,1009.18
2022-12-05T08:38:03.098Z,1009.21
2022-12-05T08:39:02.596Z,1009.19
2022-12-05T08:40:03.182Z,1009.17
2022-12-05T08:41:02.994Z,1009.25
2022-12-05T08:42:02.137Z,1009.21
2022-12-05T08:43:02.234Z,1009.24
2022-12-05T08:44:02.227Z,1009.28
2022-12-05T08:45:01.847Z,1009.29
2022-12-05T08:46:02.324Z,1009.31
2022-12-05T08:47:03.007Z,1009.34
2022-12-05T08:48:03.063Z,1009.34
2022-12-05T08:49:02.773Z,1009.34
2022-12-05T08:50:02.737Z,1009.38
2022-12-05T08:51:02.785Z,1009.41
2022-12-05T08:52:02.494Z,1009.39
2022-12-05T08:53:02.361Z,1009.43
2022-12-05T08:54:02.358Z,1009.41
2022-12-05T08:55:02.452Z,1009.43
2022-12-05T08:56:01.877Z,1009.42
2022-12-05T08:57:02.668Z,1009.40
2022-12-05T08:58:02.385Z,1009.40
2022-12-05T08:59:05.546Z,1009.43
2022-12-05T09:00:02.539Z,1009.41
2022-12-05T09:01:02.501Z,1009.41
2022-12-05T09:02:03.561Z,1009.44
2022-12-05T09:03:04.297Z,1009.40
2022-12-05T09:04:03.859Z,1009.43
2022-12-05T09:05:25.824Z,1009.40
2022-12-05T09:06:03.628Z,1009.41
2022-12-05T09:07:03.198Z,1009.40
2022-12-05T09:08:03.009Z,1009.41
2022-12-05T09:09:02.989Z,1009.45
2022-12-05T09:10:02.919Z,1009.43
2022-12-05T09:11:02.865Z,1009.44
2022-12-05T09:12:03.777Z,1009.50
2022-12-05T09:13:03.562Z,1009.53
2022-12-05T09:14:03.345Z,1009.52
2022-12-05T09:15:02.944Z,1009.51
2022-12-05T09:16:03.461Z,1009.52
2022-12-05T09:17:02.479Z,1009.53
2022-12-05T09:18:02.474Z,1009.52
2022-12-05T09:19:02.901Z,1009.53
2022-12-05T09:20:02.761Z,1009.54
2022-12-05T09:21:03.122Z,1009.54
2022-12-05T09:22:03.546Z,1009.55
2022-12-05T09:23:03.372Z,1009.54
2022-12-05T09:24:03.163Z,1009.62
2022-12-05T09:25:03.556Z,1009.52
2022-12-05T09:26:03.505Z,1009.57
2022-12-05T09:27:02.443Z,1009.57
2022-12-05T09:28:02.497Z,1009.54
2022-12-05T09:29:02.443Z,1009.58
2022-12-05T09:30:02.438Z,1009.61
2022-12-05T09:31:03.079Z,1009.58
2022-12-05T09:32:02.815Z,1009.63
2022-12-05T09:33:03.472Z,1009.63
2022-12-05T09:34:03.287Z,1009.64
2022-12-05T09:35:03.289Z,1009.67
2022-12-05T09:36:03.029Z,1009.67
2022-12-05T09:37:23.247Z,1009.69
2022-12-05T09:38:03.649Z,1009.75
2022-12-05T09:39:03.339Z,1009.73
2022-12-05T09:40:03.362Z,1009.74
2022-12-05T09:41:03.539Z,1009.73
2022-12-05T09:42:02.640Z,1009.72
2022-12-05T09:43:02.760Z,1009.74
2022-12-05T09:44:02.733Z,1009.72
2022-12-05T09:45:02.751Z,1009.77
2022-12-05T09:46:03.097Z,1009.77
2022-12-05T09:47:03.088Z,1009.75
2022-12-05T09:48:03.133Z,1009.73
2022-12-05T09:49:03.232Z,1009.76
2022-12-05T09:50:03.645Z,1009.72
2022-12-05T09:51:03.200Z,1009.72
2022-12-05T09:52:02.287Z,1009.75
2022-12-05T09:53:02.226Z,1009.73
2022-12-05T09:54:02.120Z,1009.74
2022-12-05T09:55:02.675Z,1009.77
2022-12-05T09:56:02.642Z,1009.73
2022-12-05T09:57:02.695Z,1009.72
2022-12-05T09:58:02.704Z,1009.75
2022-12-05T09:59:03.052Z,1009.73
2022-12-05T10:00:03.038Z,1009.73
2022-12-05T10:01:02.698Z,1009.77
2022-12-05T10:02:02.450Z,1009.76
2022-12-05T10:03:02.859Z,1009.78
2022-12-05T10:04:02.645Z,1009.77
2022-12-05T10:05:03.172Z,1009.79
2022-12-05T10:06:02.273Z,1009.76
2022-12-05T10:07:02.711Z,1009.72
2022-12-05T10:08:02.733Z,1009.75
2022-12-05T10:09:02.572Z,1009.75
2022-12-05T10:10:02.488Z,1009.77
2022-12-05T10:11:02.247Z,1009.75
2022-12-05T10:12:01.986Z,1009.75
2022-12-05T10:13:01.876Z,1009.71
2022-12-05T10:14:01.902Z,1009.70
2022-12-05T10:15:02.395Z,1009.74
2022-12-05T10:16:01.988Z,1009.72
2022-12-05T10:17:02.078Z,1009.74
2022-12-05T10:18:02.105Z,1009.74
2022-12-05T10:19:02.053Z,1009.72
2022-12-05T10:20:01.905Z,1009.72
2022-12-05T10:21:01.894Z,1009.73
2022-12-05T10:22:02.458Z,1009.73
2022-12-05T10:23:02.452Z,1009.71
2022-12-05T10:24:02.763Z,1009.73
2022-12-05T10:25:02.777Z,1009.67
2022-12-05T10:26:02.784Z,1009.69
2022-12-05T10:27:02.568Z,1009.72
2022-12-05T10:28:02.563Z,1009.70
2022-12-05T10:29:02.549Z,1009.69
2022-12-05T10:30:02.571Z,1009.72
2022-12-05T10:31:02.497Z,1009.72
2022-12-05T10:32:02.178Z,1009.71
2022-12-05T10:33:06.454Z,1009.70
2022-12-05T10:34:02.418Z,1009.70
2022-12-05T10:35:02.321Z,1009.75
2022-12-05T10:36:02.281Z,1009.73
2022-12-05T10:37:02.869Z,1009.72
2022-12-05T10:38:02.705Z,1009.72
2022-12-05T10:39:07.009Z,1009.67
2022-12-05T10:40:02.765Z,1009.71
2022-12-05T10:41:02.765Z,1009.72
2022-12-05T10:42:01.998Z,1009.70
2022-12-05T10:43:01.861Z,1009.71
2022-12-05T10:44:01.792Z,1009.68
2022-12-05T10:45:02.041Z,1009.67
2022-12-05T10:46:02.193Z,1009.67
2022-12-05T10:47:02.793Z,1009.68
2022-12-05T10:48:02.842Z,1009.64
2022-12-05T10:49:02.522Z,1009.66
2022-12-05T10:50:02.379Z,1009.63
2022-12-05T10:51:02.309Z,1009.65
2022-12-05T10:52:02.040Z,1009.69
2022-12-05T10:53:02.022Z,1009.63
2022-12-05T10:54:02.010Z,1009.66
2022-12-05T10:55:01.981Z,1009.67
2022-12-05T10:56:29.942Z,1009.67
2022-12-05T10:57:02.188Z,1009.66
2022-12-05T10:58:02.077Z,1009.65
2022-12-05T10:59:02.063Z,1009.63
2022-12-05T11:00:02.193Z,1009.63
2022-12-05T11:01:02.250Z,1009.63
2022-12-05T11:02:02.992Z,1009.66
2022-12-05T11:03:02.673Z,1009.62
2022-12-05T11:04:03.013Z,1009.61
2022-12-05T11:05:03.155Z,1009.63
2022-12-05T11:06:02.931Z,1009.59
2022-12-05T11:07:03.064Z,1009.60
2022-12-05T11:08:03.121Z,1009.61
2022-12-05T11:09:05.180Z,1009.58
2022-12-05T11:10:03.223Z,1009.58
2022-12-05T11:11:02.862Z,1009.61
2022-12-05T11:12:02.431Z,1009.58
2022-12-05T11:13:02.383Z,1009.62
2022-12-05T11:14:02.243Z,1009.62
2022-12-05T11:15:02.215Z,1009.58
2022-12-05T11:16:02.218Z,1009.58
2022-12-05T11:17:02.881Z,1009.58
2022-12-05T11:18:02.853Z,1009.57
2022-12-05T11:19:02.821Z,1009.56
2022-12-05T11:20:02.676Z,1009.60
2022-12-05T11:21:02.622Z,1009.59
2022-12-05T11:22:02.421Z,1009.62
2022-12-05T11:23:02.285Z,1009.60
2022-12-05T11:24:02.244Z,1009.61
2022-12-05T11:25:02.536Z,1009.64
2022-12-05T11:26:02.238Z,1009.63
2022-12-05T11:27:02.899Z,1009.65
2022-12-05T11:28:02.849Z,1009.67
2022-12-05T11:29:02.610Z,1009.66
2022-12-05T11:30:02.426Z,1009.67
2022-12-05T11:31:03.049Z,1009.66
2022-12-05T11:32:02.494Z,1009.67
2022-12-05T11:33:02.400Z,1009.71
2022-12-05T11:34:02.532Z,1009.69
2022-12-05T11:35:02.140Z,1009.70
2022-12-05T11:36:02.513Z,1009.68
2022-12-05T11:37:02.770Z,1009.69
2022-12-05T11:38:02.550Z,1009.68
2022-12-05T11:39:02.434Z,1009.69
2022-12-05T11:40:02.304Z,1009.69
2022-12-05T11:41:02.382Z,1009.69
2022-12-05T11:42:03.028Z,1009.70
2022-12-05T11:43:03.107Z,1009.69
2022-12-05T11:44:02.793Z,1009.66
2022-12-05T11:45:02.706Z,1009.63
2022-12-05T11:46:02.980Z,1009.61
2022-12-05T11:47:02.955Z,1009.61
2022-12-05T11:48:02.609Z,1009.60
2022-12-05T11:49:02.572Z,1009.61
2022-12-05T11:50:02.527Z,1009.61
2022-12-05T11:51:02.642Z,1009.58
2022-12-05T11:52:02.949Z,1009.57
2022-12-05T11:53:02.633Z,1009.57
2022-12-05T11:54:02.512Z,1009.54
2022-12-05T11:55:05.489Z,1009.52
2022-12-05T11:56:02.824Z,1009.52
2022-12-05T11:57:03.156Z,1009.50
2022-12-05T11:58:02.913Z,1009.48
2022-12-05T11:59:02.594Z,1009.45
2022-12-05T12:00:03.151Z,1009.50
2022-12-05T12:01:02.992Z,1009.45
2022-12-05T12:02:03.495Z,1009.46
2022-12-05T12:03:03.127Z,1009.42
2022-12-05T12:04:03.078Z,1009.44
2022-12-05T12:05:02.933Z,1009.46
2022-12-05T12:06:03.060Z,1009.41
2022-12-05T12:07:02.083Z,1009.43